createdAt,value
2023-05-08T00:01:45.447Z,6.24
2023-05-08T00:04:12.325Z,6.21
2023-05-08T00:06:39.197Z,6.21
2023-05-08T00:09:06.059Z,6.20
2023-05-08T00:11:32.869Z,6.19
2023-05-08T00:13:59.620Z,6.18
2023-05-08T00:16:26.473Z,6.13
2023-05-08T00:18:54.236Z,6.04
2023-05-08T00:21:21.095Z,5.96
2023-05-08T00:23:47.920Z,5.90
2023-05-08T00:26:14.642Z,5.83
2023-05-08T00:28:41.407Z,5.75
2023-05-08T00:31:08.246Z,5.66
2023-05-08T00:33:35.073Z,5.60
2023-05-08T00:36:02.216Z,5.58
2023-05-08T00:38:35.231Z,5.54
2023-05-08T00:41:02.742Z,5.50
2023-05-08T00:43:29.547Z,5.49
2023-05-08T00:45:57.067Z,5.47
2023-05-08T00:48:24.074Z,5.46
2023-05-08T00:50:51.936Z,5.47
2023-05-08T00:53:19.577Z,5.48
2023-05-08T00:55:46.517Z,5.50
2023-05-08T00:58:13.769Z,5.51
2023-05-08T01:00:41.969Z,5.50
2023-05-08T01:03:09.505Z,5.50
2023-05-08T01:05:36.705Z,5.51
2023-05-08T01:08:04.021Z,5.50
2023-05-08T01:10:48.549Z,5.50
2023-05-08T01:13:34.420Z,5.48
2023-05-08T01:16:25.073Z,5.46
2023-05-08T01:19:01.634Z,5.45
2023-05-08T01:21:38.140Z,5.43
2023-05-08T01:24:44.152Z,5.40
2023-05-08T01:27:29.751Z,5.38
2023-05-08T01:30:18.469Z,5.38
2023-05-08T01:32:55.939Z,5.37
2023-05-08T01:35:49.888Z,5.35
2023-05-08T01:38:25.366Z,5.32
2023-05-08T01:41:25.816Z,5.32
2023-05-08T01:43:56.047Z,5.30
2023-05-08T01:46:25.398Z,5.30
2023-05-08T01:49:11.722Z,5.30
2023-05-08T01:51:49.574Z,5.33
2023-05-08T01:54:16.813Z,5.33
2023-05-08T01:56:44.612Z,5.31
2023-05-08T01:59:14.097Z,5.28
2023-05-08T02:01:40.958Z,5.27
2023-05-08T02:04:08.130Z,5.24
2023-05-08T02:06:37.203Z,5.21
2023-05-08T02:09:04.063Z,5.19
2023-05-08T02:11:32.025Z,5.13
2023-05-08T02:13:58.960Z,5.08
2023-05-08T02:16:26.181Z,5.02
2023-05-08T02:18:54.407Z,5.00
2023-05-08T02:21:21.386Z,4.97
2023-05-08T02:23:48.284Z,4.95
2023-05-08T02:26:15.843Z,4.93
2023-05-08T02:28:42.604Z,4.93
2023-05-08T02:31:09.738Z,4.92
2023-05-08T02:33:37.917Z,4.90
2023-05-08T02:36:04.850Z,4.89
2023-05-08T02:38:31.908Z,4.87
2023-05-08T02:41:01.011Z,4.85
2023-05-08T02:43:27.963Z,4.83
2023-05-08T02:46:14.004Z,4.84
2023-05-08T02:48:58.553Z,4.85
2023-05-08T02:51:28.098Z,4.85
2023-05-08T02:53:58.812Z,4.82
2023-05-08T02:56:32.998Z,4.81
2023-05-08T02:59:13.692Z,4.82
2023-05-08T03:01:52.248Z,4.81
2023-05-08T03:04:32.581Z,4.80
2023-05-08T03:06:59.507Z,4.80
2023-05-08T03:09:28.314Z,4.81
2023-05-08T03:11:59.585Z,4.79
2023-05-08T03:14:26.519Z,4.79
2023-05-08T03:16:53.369Z,4.80
2023-05-08T03:19:28.345Z,4.80
2023-05-08T03:21:55.165Z,4.82
2023-05-08T03:24:22.822Z,4.83
2023-05-08T03:26:49.876Z,4.84
2023-05-08T03:29:16.953Z,4.85
2023-05-08T03:31:43.903Z,4.87
2023-05-08T03:34:12.357Z,4.87
2023-05-08T03:36:39.423Z,4.89
2023-05-08T03:39:06.861Z,4.90
2023-05-08T03:41:33.777Z,4.91
2023-05-08T03:44:00.776Z,4.93
2023-05-08T03:46:27.764Z,4.93
2023-05-08T03:48:55.920Z,4.94
2023-05-08T03:51:23.046Z,4.95
2023-05-08T03:53:50.102Z,4.94
2023-05-08T03:56:17.558Z,4.94
2023-05-08T03:58:52.095Z,4.94
2023-05-08T04:01:26.148Z,4.95
2023-05-08T04:04:06.698Z,4.98
2023-05-08T04:06:57.067Z,4.99
2023-05-08T04:09:34.704Z,5.00
2023-05-08T04:12:15.441Z,5.00
2023-05-08T04:14:50.809Z,5.00
2023-05-08T04:17:28.804Z,4.99
2023-05-08T04:19:59.168Z,4.98
2023-05-08T04:22:26.251Z,4.99
2023-05-08T04:24:53.208Z,5.00
2023-05-08T04:27:20.456Z,5.00
2023-05-08T04:29:47.223Z,5.00
2023-05-08T04:32:14.230Z,5.01
2023-05-08T04:34:41.190Z,5.02
2023-05-08T04:37:08.198Z,5.04
2023-05-08T04:39:35.546Z,5.04
2023-05-08T04:42:04.660Z,5.06
2023-05-08T04:44:32.384Z,5.06
2023-05-08T04:46:59.331Z,5.07
2023-05-08T04:49:26.497Z,5.08
2023-05-08T04:51:53.246Z,5.08
2023-05-08T04:54:20.083Z,5.08
2023-05-08T04:56:46.972Z,5.09
2023-05-08T04:59:15.440Z,5.10
2023-05-08T05:01:43.250Z,5.14
2023-05-08T05:04:10.164Z,5.18
2023-05-08T05:08:00.877Z,5.25
2023-05-08T05:10:27.925Z,5.26
2023-05-08T05:12:54.936Z,5.29
2023-05-08T05:15:22.590Z,5.31
2023-05-08T05:17:49.547Z,5.31
2023-05-08T05:20:17.217Z,5.32
2023-05-08T05:22:44.404Z,5.32
2023-05-08T05:25:12.426Z,5.33
2023-05-08T05:27:40.038Z,5.34
2023-05-08T05:30:13.929Z,5.32
2023-05-08T05:32:45.252Z,5.31
2023-05-08T05:35:14.386Z,5.30
2023-05-08T05:37:41.537Z,5.29
2023-05-08T05:40:09.064Z,5.30
2023-05-08T05:42:37.177Z,5.33
2023-05-08T05:45:04.527Z,5.39
2023-05-08T05:47:31.943Z,5.47
2023-05-08T05:49:59.230Z,5.54
2023-05-08T05:52:26.761Z,5.58
2023-05-08T05:54:53.661Z,5.63
2023-05-08T05:57:20.648Z,5.65
2023-05-08T05:59:47.481Z,5.65
2023-05-08T06:02:18.668Z,5.63
2023-05-08T06:04:46.228Z,5.62
2023-05-08T06:07:13.133Z,5.61
2023-05-08T06:09:40.433Z,5.59
2023-05-08T06:12:10.453Z,5.54
2023-05-08T06:14:37.623Z,5.53
2023-05-08T06:17:05.604Z,5.53
2023-05-08T06:19:32.486Z,5.53
2023-05-08T06:21:59.313Z,5.53
2023-05-08T06:24:26.194Z,5.54
2023-05-08T06:26:52.982Z,5.56
2023-05-08T06:29:19.700Z,5.56
2023-05-08T06:31:46.636Z,5.55
2023-05-08T06:34:13.480Z,5.55
2023-05-08T06:36:40.427Z,5.56
2023-05-08T06:39:07.776Z,5.56
2023-05-08T06:41:34.635Z,5.59
2023-05-08T06:44:01.427Z,5.62
2023-05-08T06:46:30.026Z,5.63
2023-05-08T06:49:01.702Z,5.63
2023-05-08T06:51:28.639Z,5.65
2023-05-08T06:53:55.486Z,5.67
2023-05-08T06:56:22.880Z,5.70
2023-05-08T06:59:00.464Z,5.73
2023-05-08T07:01:31.550Z,5.75
2023-05-08T07:04:01.065Z,5.76
2023-05-08T07:06:27.829Z,5.73
2023-05-08T07:08:54.599Z,5.72
2023-05-08T07:11:21.531Z,5.73
2023-05-08T07:13:48.469Z,5.75
2023-05-08T07:16:16.308Z,5.77
2023-05-08T07:18:44.275Z,5.80
2023-05-08T07:21:11.314Z,5.81
2023-05-08T07:23:38.219Z,5.84
2023-05-08T07:26:05.044Z,5.86
2023-05-08T07:28:31.783Z,5.89
2023-05-08T07:30:58.887Z,5.92
2023-05-08T07:33:26.021Z,5.95
2023-05-08T07:35:52.962Z,5.96
2023-05-08T07:38:19.669Z,5.95
2023-05-08T07:40:46.760Z,5.94
2023-05-08T07:43:15.122Z,5.95
2023-05-08T07:45:41.920Z,6.01
2023-05-08T07:48:09.262Z,6.10
2023-05-08T07:50:36.542Z,6.17
2023-05-08T07:53:03.305Z,6.17
2023-05-08T07:55:30.182Z,6.15
2023-05-08T07:57:56.966Z,6.13
2023-05-08T08:00:23.958Z,6.10
2023-05-08T08:02:51.027Z,6.11
2023-05-08T08:05:18.071Z,6.17
2023-05-08T08:07:45.190Z,6.25
2023-05-08T08:10:12.532Z,6.33
2023-05-08T08:12:39.445Z,6.40
2023-05-08T08:15:06.760Z,6.48
2023-05-08T08:17:33.827Z,6.54
2023-05-08T08:20:00.959Z,6.57
2023-05-08T08:22:27.814Z,6.56
2023-05-08T08:24:57.665Z,6.55
2023-05-08T08:27:24.448Z,6.57
2023-05-08T08:29:56.347Z,6.57
2023-05-08T08:32:31.653Z,6.55
2023-05-08T08:34:58.596Z,6.54
2023-05-08T08:37:26.427Z,6.50
2023-05-08T08:39:53.684Z,6.46
2023-05-08T08:42:20.516Z,6.46
2023-05-08T08:44:47.392Z,6.50
2023-05-08T08:47:14.911Z,6.51
2023-05-08T08:49:43.711Z,6.49
2023-05-08T08:52:37.715Z,6.48
2023-05-08T08:55:05.676Z,6.52
2023-05-08T08:57:33.860Z,6.58
2023-05-08T09:00:03.918Z,6.63
2023-05-08T09:02:31.388Z,6.65
2023-05-08T09:04:58.813Z,6.67
2023-05-08T09:07:26.192Z,6.71
2023-05-08T09:09:53.075Z,6.74
2023-05-08T09:12:19.919Z,6.73
2023-05-08T09:14:47.066Z,6.72
2023-05-08T09:17:14.460Z,6.76
2023-05-08T09:19:41.235Z,6.79
2023-05-08T09:22:09.409Z,6.80
2023-05-08T09:24:59.399Z,6.80
2023-05-08T09:27:28.934Z,6.84
2023-05-08T09:30:04.561Z,6.85
2023-05-08T09:32:32.112Z,6.82
2023-05-08T09:34:59.044Z,6.79
2023-05-08T09:37:26.286Z,6.73
2023-05-08T09:39:53.788Z,6.64
2023-05-08T09:42:20.935Z,6.52
2023-05-08T09:44:51.906Z,6.43
2023-05-08T09:47:20.695Z,6.39
2023-05-08T09:50:08.220Z,6.39
2023-05-08T09:52:37.525Z,6.47
2023-05-08T09:55:05.766Z,6.49
2023-05-08T09:57:34.017Z,6.52
2023-05-08T10:00:12.281Z,6.54
2023-05-08T10:02:40.909Z,6.57
2023-05-08T10:05:24.446Z,6.59
2023-05-08T10:07:51.410Z,6.63
2023-05-08T10:10:28.753Z,6.67
2023-05-08T10:12:56.464Z,6.73
2023-05-08T10:15:24.861Z,6.75
2023-05-08T10:18:01.350Z,6.78
2023-05-08T10:20:30.288Z,6.82
2023-05-08T10:22:57.629Z,6.87
2023-05-08T10:25:25.986Z,6.90
2023-05-08T10:28:13.165Z,6.92
2023-05-08T10:30:44.748Z,6.92
2023-05-08T10:33:11.654Z,6.89
2023-05-08T10:35:38.720Z,6.88
2023-05-08T10:38:06.146Z,6.90
2023-05-08T10:40:33.108Z,6.98
2023-05-08T10:43:02.394Z,7.03
2023-05-08T10:45:33.973Z,7.08
2023-05-08T10:48:13.467Z,7.09
2023-05-08T10:50:59.653Z,7.06
2023-05-08T10:53:46.515Z,7.06
2023-05-08T10:56:13.645Z,7.10
2023-05-08T10:58:40.422Z,7.14
2023-05-08T11:01:07.869Z,7.15
2023-05-08T11:03:40.891Z,7.16
2023-05-08T11:06:08.210Z,7.20
2023-05-08T11:08:43.767Z,7.25
2023-05-08T11:11:17.434Z,7.29
2023-05-08T11:13:50.345Z,7.37
2023-05-08T11:16:17.365Z,7.41
2023-05-08T11:19:16.457Z,7.46
2023-05-08T11:22:12.403Z,7.53
2023-05-08T11:24:40.146Z,7.64
2023-05-08T11:27:07.530Z,7.71
2023-05-08T11:29:34.370Z,7.75
2023-05-08T11:32:01.371Z,7.80
2023-05-08T11:34:44.398Z,7.85
2023-05-08T11:37:22.185Z,7.94
2023-05-08T11:39:49.197Z,8.06
2023-05-08T11:42:36.548Z,8.18
2023-05-08T11:45:10.865Z,8.25
2023-05-08T11:47:42.890Z,8.24
2023-05-08T11:50:13.511Z,8.21
2023-05-08T11:52:41.392Z,8.17
2023-05-08T11:55:09.605Z,8.15
2023-05-08T11:57:40.142Z,8.15
2023-05-08T12:00:10.876Z,8.14
2023-05-08T12:02:42.565Z,8.12
2023-05-08T12:05:10.477Z,8.12
2023-05-08T12:07:47.263Z,8.13
2023-05-08T12:10:15.194Z,8.14
2023-05-08T12:12:43.367Z,8.15
2023-05-08T12:15:14.067Z,8.18
2023-05-08T12:17:41.743Z,8.19
2023-05-08T12:20:13.440Z,8.21
2023-05-08T12:22:41.843Z,8.23
2023-05-08T12:25:10.410Z,8.25
2023-05-08T12:27:37.810Z,8.28
2023-05-08T12:30:09.217Z,8.32
2023-05-08T12:32:40.818Z,8.43
2023-05-08T12:35:08.309Z,8.52
2023-05-08T12:37:35.478Z,8.61
2023-05-08T12:40:03.089Z,8.66
2023-05-08T12:42:43.190Z,8.68
2023-05-08T12:45:18.086Z,8.75
2023-05-08T12:47:49.921Z,8.82
2023-05-08T12:50:17.442Z,8.85
2023-05-08T12:52:44.530Z,8.90
2023-05-08T12:55:24.740Z,8.96
2023-05-08T12:58:02.458Z,9.01
2023-05-08T13:00:43.930Z,9.01
2023-05-08T13:03:12.184Z,8.94
2023-05-08T13:05:45.926Z,8.89
2023-05-08T13:08:13.000Z,8.86
2023-05-08T13:10:47.081Z,8.84
2023-05-08T13:13:18.927Z,8.83
2023-05-08T13:15:46.197Z,8.80
2023-05-08T13:18:13.156Z,8.79
2023-05-08T13:20:40.232Z,8.77
2023-05-08T13:23:07.419Z,8.74
2023-05-08T13:25:34.268Z,8.75
2023-05-08T13:28:01.488Z,8.72
2023-05-08T13:30:28.333Z,8.67
2023-05-08T13:32:55.348Z,8.65
2023-05-08T13:35:22.294Z,8.63
2023-05-08T13:37:49.162Z,8.60
2023-05-08T13:40:16.105Z,8.57
2023-05-08T13:42:43.120Z,8.58
2023-05-08T13:45:16.434Z,8.59
2023-05-08T13:47:43.692Z,8.60
2023-05-08T13:50:11.421Z,8.59
2023-05-08T13:52:38.581Z,8.61
2023-05-08T13:55:06.954Z,8.66
2023-05-08T13:57:33.704Z,8.70
2023-05-08T14:00:00.945Z,8.71
2023-05-08T14:02:28.094Z,8.70
2023-05-08T14:04:55.662Z,8.66
2023-05-08T14:07:22.534Z,8.62
2023-05-08T14:09:49.445Z,8.62
2023-05-08T14:12:16.291Z,8.64
2023-05-08T14:14:43.050Z,8.67
2023-05-08T14:17:10.716Z,8.67
2023-05-08T14:19:37.564Z,8.68
2023-05-08T14:22:04.909Z,8.70
2023-05-08T14:24:31.678Z,8.68
2023-05-08T14:26:59.419Z,8.66
2023-05-08T14:29:26.167Z,8.65
2023-05-08T14:31:53.147Z,8.62
2023-05-08T14:34:20.059Z,8.57
2023-05-08T14:36:46.802Z,8.52
2023-05-08T14:39:13.587Z,8.51
2023-05-08T14:41:40.506Z,8.49
2023-05-08T14:44:07.379Z,8.48
2023-05-08T14:46:34.114Z,8.48
2023-05-08T14:49:00.953Z,8.46
2023-05-08T14:51:28.295Z,8.47
2023-05-08T14:53:55.141Z,8.48
2023-05-08T14:56:24.658Z,8.51
2023-05-08T14:58:52.120Z,8.54
2023-05-08T15:01:19.374Z,8.53
2023-05-08T15:03:52.966Z,8.54
2023-05-08T15:06:23.678Z,8.53
2023-05-08T15:08:51.892Z,8.51
2023-05-08T15:11:18.688Z,8.49
2023-05-08T15:13:46.255Z,8.46
2023-05-08T15:16:13.024Z,8.43
2023-05-08T15:18:40.369Z,8.41
2023-05-08T15:21:07.199Z,8.39
2023-05-08T15:23:33.999Z,8.37
2023-05-08T15:26:02.537Z,8.35
2023-05-08T15:28:29.270Z,8.33
2023-05-08T15:30:56.081Z,8.31
2023-05-08T15:33:22.975Z,8.30
2023-05-08T15:35:49.831Z,8.29
2023-05-08T15:38:16.597Z,8.28
2023-05-08T15:40:43.349Z,8.29
2023-05-08T15:43:10.718Z,8.29
2023-05-08T15:45:37.754Z,8.32
2023-05-08T15:48:05.068Z,8.35
2023-05-08T15:50:31.839Z,8.35
2023-05-08T15:52:58.610Z,8.34
2023-05-08T15:55:25.433Z,8.33
2023-05-08T15:57:52.165Z,8.32
2023-05-08T16:00:22.955Z,8.30
2023-05-08T16:02:50.099Z,8.31
2023-05-08T16:05:17.076Z,8.30
2023-05-08T16:07:44.973Z,8.28
2023-05-08T16:10:12.629Z,8.26
2023-05-08T16:12:39.588Z,8.25
2023-05-08T16:15:07.128Z,8.23
2023-05-08T16:17:34.316Z,8.22
2023-05-08T16:20:01.714Z,8.22
2023-05-08T16:22:28.546Z,8.22
2023-05-08T16:24:55.379Z,8.21
2023-05-08T16:27:22.200Z,8.21
2023-05-08T16:29:49.372Z,8.20
2023-05-08T16:32:16.621Z,8.21
2023-05-08T16:34:44.501Z,8.22
2023-05-08T16:37:11.247Z,8.23
2023-05-08T16:39:38.023Z,8.25
2023-05-08T16:42:06.291Z,8.23
2023-05-08T16:44:33.316Z,8.20
2023-05-08T16:47:00.139Z,8.17
2023-05-08T16:49:27.320Z,8.15
2023-05-08T16:51:54.068Z,8.13
2023-05-08T16:54:20.802Z,8.12
2023-05-08T16:56:47.579Z,8.13
2023-05-08T16:59:14.392Z,8.12
2023-05-08T17:01:41.151Z,8.11
2023-05-08T17:04:07.984Z,8.09
2023-05-08T17:06:34.783Z,8.07
2023-05-08T17:09:01.498Z,8.07
2023-05-08T17:11:28.624Z,8.07
2023-05-08T17:13:55.510Z,8.07
2023-05-08T17:16:22.607Z,8.08
2023-05-08T17:18:49.680Z,8.10
2023-05-08T17:21:16.751Z,8.11
2023-05-08T17:26:11.954Z,8.13
2023-05-08T17:28:38.949Z,8.10
2023-05-08T17:31:05.906Z,8.10
2023-05-08T17:33:33.596Z,8.10
2023-05-08T17:36:01.509Z,8.11
2023-05-08T17:38:28.484Z,8.11
2023-05-08T17:40:56.416Z,8.12
2023-05-08T17:43:23.186Z,8.10
2023-05-08T17:45:50.131Z,8.08
2023-05-08T17:48:16.974Z,8.07
2023-05-08T17:50:45.780Z,8.07
2023-05-08T17:53:12.901Z,8.05
2023-05-08T17:55:39.675Z,8.05
2023-05-08T17:58:06.469Z,8.04
2023-05-08T18:00:33.167Z,8.02
2023-05-08T18:03:00.251Z,8.00
2023-05-08T18:05:27.299Z,7.97
2023-05-08T18:07:54.124Z,7.96
2023-05-08T18:10:21.393Z,7.95
2023-05-08T18:12:48.352Z,7.95
2023-05-08T18:15:15.194Z,7.94
2023-05-08T18:17:41.975Z,7.95
2023-05-08T18:20:10.092Z,7.94
2023-05-08T18:22:36.904Z,7.93
2023-05-08T18:25:03.874Z,7.93
2023-05-08T18:27:33.680Z,7.92
2023-05-08T18:30:00.492Z,7.92
2023-05-08T18:32:27.771Z,7.92
2023-05-08T18:34:54.631Z,7.92
2023-05-08T18:37:21.560Z,7.93
2023-05-08T18:39:48.408Z,7.93
2023-05-08T18:42:15.900Z,7.94
2023-05-08T18:44:42.835Z,7.95
2023-05-08T18:47:09.727Z,7.97
2023-05-08T18:49:36.506Z,7.99
2023-05-08T18:52:03.380Z,8.01
2023-05-08T18:54:30.336Z,8.04
2023-05-08T18:56:57.688Z,8.06
2023-05-08T18:59:24.453Z,8.08
2023-05-08T19:01:51.482Z,8.09
2023-05-08T19:04:18.222Z,8.09
2023-05-08T19:06:45.084Z,8.10
2023-05-08T19:09:11.939Z,8.10
2023-05-08T19:11:38.660Z,8.10
2023-05-08T19:14:05.625Z,8.10
2023-05-08T19:16:32.541Z,8.10
2023-05-08T19:18:59.543Z,8.09
2023-05-08T19:21:26.276Z,8.08
2023-05-08T19:23:53.095Z,8.06
2023-05-08T19:26:19.929Z,8.01
2023-05-08T19:28:46.780Z,7.96
2023-05-08T19:31:14.162Z,7.90
2023-05-08T19:33:40.992Z,7.85
2023-05-08T19:36:07.825Z,7.81
2023-05-08T19:38:34.608Z,7.78
2023-05-08T19:41:01.398Z,7.80
2023-05-08T19:43:28.485Z,7.81
2023-05-08T19:45:55.986Z,7.81
2023-05-08T19:48:24.091Z,7.79
2023-05-08T19:50:53.569Z,7.76
2023-05-08T19:53:22.625Z,7.73
2023-05-08T19:55:49.760Z,7.68
2023-05-08T19:58:18.091Z,7.63
2023-05-08T20:00:51.026Z,7.60
2023-05-08T20:03:18.134Z,7.56
2023-05-08T20:05:45.035Z,7.52
2023-05-08T20:08:11.790Z,7.50
2023-05-08T20:10:38.624Z,7.48
2023-05-08T20:13:05.654Z,7.45
2023-05-08T20:15:32.718Z,7.44
2023-05-08T20:17:59.822Z,7.43
2023-05-08T20:20:27.260Z,7.41
2023-05-08T20:22:54.001Z,7.39
2023-05-08T20:25:20.811Z,7.37
2023-05-08T20:27:47.564Z,7.36
2023-05-08T20:30:14.616Z,7.34
2023-05-08T20:32:41.661Z,7.33
2023-05-08T20:35:09.031Z,7.33
2023-05-08T20:37:35.779Z,7.32
2023-05-08T20:40:04.854Z,7.32
2023-05-08T20:42:31.910Z,7.31
2023-05-08T20:44:58.644Z,7.32
2023-05-08T20:47:25.625Z,7.34
2023-05-08T20:49:52.453Z,7.38
2023-05-08T20:52:19.172Z,7.39
2023-05-08T20:54:47.292Z,7.42
2023-05-08T20:57:15.786Z,7.42
2023-05-08T20:59:42.519Z,7.42
2023-05-08T21:02:09.383Z,7.41
2023-05-08T21:04:36.644Z,7.42
2023-05-08T21:07:03.563Z,7.44
2023-05-08T21:09:30.406Z,7.45
2023-05-08T21:11:57.152Z,7.48
2023-05-08T21:14:23.940Z,7.48
2023-05-08T21:16:50.782Z,7.50
2023-05-08T21:19:17.595Z,7.52
2023-05-08T21:21:45.001Z,7.54
2023-05-08T21:24:11.889Z,7.57
2023-05-08T21:26:38.722Z,7.58
2023-05-08T21:29:05.461Z,7.59
2023-05-08T21:31:33.668Z,7.59
2023-05-08T21:34:00.393Z,7.60
2023-05-08T21:36:27.131Z,7.62
2023-05-08T21:38:55.229Z,7.63
2023-05-08T21:41:22.158Z,7.64
2023-05-08T21:43:48.998Z,7.65
2023-05-08T21:46:15.822Z,7.66
2023-05-08T21:48:42.670Z,7.67
2023-05-08T21:51:09.412Z,7.68
2023-05-08T21:53:36.363Z,7.69
2023-05-08T21:56:03.435Z,7.68
2023-05-08T21:58:30.174Z,7.67
2023-05-08T22:00:58.549Z,7.65
2023-05-08T22:03:25.796Z,7.65
2023-05-08T22:05:52.645Z,7.64
2023-05-08T22:08:19.679Z,7.63
2023-05-08T22:10:46.540Z,7.62
2023-05-08T22:13:13.415Z,7.61
2023-05-08T22:15:40.414Z,7.60
2023-05-08T22:18:07.261Z,7.60
2023-05-08T22:20:34.355Z,7.60
2023-05-08T22:23:01.347Z,7.59
2023-05-08T22:25:28.215Z,7.58
2023-05-08T22:27:54.923Z,7.59
2023-05-08T22:30:22.279Z,7.61
2023-05-08T22:32:54.838Z,7.62
2023-05-08T22:35:25.698Z,7.62
2023-05-08T22:37:52.947Z,7.59
2023-05-08T22:40:20.523Z,7.55
2023-05-08T22:42:47.286Z,7.48
2023-05-08T22:45:14.333Z,7.41
2023-05-08T22:47:41.327Z,7.32
2023-05-08T22:50:09.305Z,7.25
2023-05-08T22:52:36.694Z,7.22
2023-05-08T22:55:04.148Z,7.20
2023-05-08T22:57:30.968Z,7.17
2023-05-08T22:59:57.828Z,7.15
2023-05-08T23:02:24.628Z,7.13
2023-05-08T23:04:51.652Z,7.12
2023-05-08T23:07:18.660Z,7.11
2023-05-08T23:09:45.381Z,7.08
2023-05-08T23:12:12.356Z,7.03
2023-05-08T23:14:39.071Z,6.99
2023-05-08T23:17:05.900Z,6.96
2023-05-08T23:19:32.829Z,6.95
2023-05-08T23:21:59.613Z,6.93
2023-05-08T23:24:26.344Z,6.90
2023-05-08T23:26:53.307Z,6.87
2023-05-08T23:29:20.021Z,6.84
2023-05-08T23:31:46.934Z,6.80
2023-05-08T23:34:13.808Z,6.78
2023-05-08T23:36:40.574Z,6.74
2023-05-08T23:39:07.514Z,6.72
2023-05-08T23:41:34.242Z,6.69
2023-05-08T23:44:00.981Z,6.66
2023-05-08T23:46:27.716Z,6.63
2023-05-08T23:48:54.475Z,6.61
2023-05-08T23:51:21.610Z,6.59
2023-05-08T23:53:49.075Z,6.57
2023-05-08T23:56:16.127Z,6.57
2023-05-08T23:58:42.883Z,6.56
